createdAt,value
2019-05-21T00:01:18.877Z,10.60
2019-05-21T00:03:48.687Z,9.03
2019-05-21T00:06:18.612Z,9.60
2019-05-21T00:08:48.576Z,8.30
2019-05-21T00:11:18.445Z,10.17
2019-05-21T00:13:48.355Z,6.30
2019-05-21T00:16:18.128Z,8.37
2019-05-21T00:18:47.892Z,11.37
2019-05-21T00:21:17.642Z,4.67
2019-05-21T00:23:47.432Z,6.17
2019-05-21T00:26:17.348Z,7.07
2019-05-21T00:29:22.799Z,5.67
2019-05-21T00:32:28.047Z,5.60
2019-05-21T00:35:48.854Z,8.73
2019-05-21T00:38:54.006Z,7.40
2019-05-21T00:41:58.940Z,7.57
2019-05-21T00:44:29.951Z,5.90
2019-05-21T00:46:59.804Z,8.47
2019-05-21T00:49:29.757Z,7.90
2019-05-21T00:52:08.216Z,8.17
2019-05-21T00:54:31.059Z,17.20
2019-05-21T00:57:02.629Z,20.37
2019-05-21T00:59:32.530Z,13.50
2019-05-21T01:02:02.377Z,11.90
2019-05-21T01:04:32.322Z,10.43
2019-05-21T01:07:02.356Z,11.83
2019-05-21T01:09:32.414Z,11.57
2019-05-21T01:12:02.374Z,12.03
2019-05-21T01:14:32.245Z,7.10
2019-05-21T01:17:02.214Z,6.20
2019-05-21T01:19:32.088Z,11.70
2019-05-21T01:22:01.988Z,12.03
2019-05-21T01:24:31.657Z,15.23
2019-05-21T01:27:01.439Z,17.23
2019-05-21T01:29:31.137Z,31.53
2019-05-21T01:32:01.113Z,49.30
2019-05-21T01:34:30.938Z,41.57
2019-05-21T01:37:01.090Z,29.50
2019-05-21T01:39:30.816Z,7.80
2019-05-21T01:42:00.706Z,6.17
2019-05-21T01:44:30.558Z,11.30
2019-05-21T01:47:00.573Z,11.87
2019-05-21T01:49:30.530Z,8.00
2019-05-21T01:52:00.413Z,10.67
2019-05-21T01:54:30.373Z,9.10
2019-05-21T01:57:00.136Z,9.27
2019-05-21T01:59:30.073Z,13.40
2019-05-21T02:02:00.109Z,11.77
2019-05-21T02:04:29.883Z,8.27
2019-05-21T02:07:00.102Z,9.63
2019-05-21T02:09:31.716Z,6.40
2019-05-21T02:12:01.505Z,25.07
2019-05-21T02:14:31.420Z,18.17
2019-05-21T02:17:01.378Z,12.20
2019-05-21T02:19:31.246Z,23.77
2019-05-21T02:22:01.273Z,31.53
2019-05-21T02:24:31.280Z,23.70
2019-05-21T02:27:01.094Z,11.00
2019-05-21T02:29:30.894Z,9.47
2019-05-21T02:32:00.812Z,10.97
2019-05-21T02:34:30.785Z,10.83
2019-05-21T02:37:00.667Z,12.43
2019-05-21T02:39:30.714Z,15.27
2019-05-21T02:42:00.477Z,11.37
2019-05-21T02:44:30.296Z,10.97
2019-05-21T02:47:00.068Z,9.13
2019-05-21T02:49:29.931Z,11.67
2019-05-21T02:51:59.545Z,8.67
2019-05-21T02:54:39.951Z,10.87
2019-05-21T02:57:01.023Z,9.37
2019-05-21T02:59:30.836Z,8.83
2019-05-21T03:02:12.917Z,13.13
2019-05-21T03:04:42.769Z,11.17
2019-05-21T03:07:18.789Z,10.83
2019-05-21T03:09:51.618Z,10.63
2019-05-21T03:12:21.413Z,15.03
2019-05-21T03:14:51.198Z,11.10
2019-05-21T03:17:20.945Z,13.17
2019-05-21T03:19:50.881Z,12.03
2019-05-21T03:22:22.053Z,12.70
2019-05-21T03:24:51.893Z,8.73
2019-05-21T03:27:21.533Z,11.73
2019-05-21T03:29:51.498Z,10.40
2019-05-21T03:32:21.352Z,15.20
2019-05-21T03:34:51.175Z,11.00
2019-05-21T03:37:21.170Z,9.43
2019-05-21T03:39:51.145Z,7.50
2019-05-21T03:42:20.935Z,10.10
2019-05-21T03:45:00.021Z,8.70
2019-05-21T03:47:23.955Z,8.47
2019-05-21T03:49:54.091Z,16.60
2019-05-21T03:52:25.335Z,10.10
2019-05-21T03:54:55.340Z,6.47
2019-05-21T03:57:25.159Z,11.90
2019-05-21T03:59:55.006Z,9.47
2019-05-21T04:02:24.871Z,8.93
2019-05-21T04:04:54.692Z,8.00
2019-05-21T04:07:25.715Z,12.13
2019-05-21T04:09:55.657Z,9.63
2019-05-21T04:12:25.373Z,6.10
2019-05-21T04:14:59.559Z,10.53
2019-05-21T04:17:53.935Z,10.03
2019-05-21T04:20:23.683Z,9.10
2019-05-21T04:22:53.594Z,10.13
2019-05-21T04:25:24.228Z,7.97
2019-05-21T04:27:54.093Z,10.57
2019-05-21T04:30:23.760Z,8.17
2019-05-21T04:32:53.642Z,14.10
2019-05-21T04:35:23.481Z,10.90
2019-05-21T04:37:53.454Z,12.10
2019-05-21T04:40:23.414Z,9.77
2019-05-21T04:42:53.157Z,13.77
2019-05-21T04:45:22.965Z,9.03
2019-05-21T04:47:54.266Z,12.60
2019-05-21T04:50:24.020Z,14.33
2019-05-21T04:52:53.789Z,10.20
2019-05-21T04:55:23.537Z,13.30
2019-05-21T04:57:53.256Z,8.70
2019-05-21T05:00:23.419Z,13.07
2019-05-21T05:02:53.084Z,8.23
2019-05-21T05:05:22.914Z,14.93
2019-05-21T05:07:52.813Z,14.50
2019-05-21T05:10:22.782Z,12.97
2019-05-21T05:12:52.649Z,9.70
2019-05-21T05:15:22.582Z,10.30
2019-05-21T05:17:52.443Z,10.93
2019-05-21T05:20:22.188Z,9.90
2019-05-21T05:22:51.911Z,11.50
2019-05-21T05:25:21.773Z,14.30
2019-05-21T05:27:51.558Z,10.57
2019-05-21T05:30:21.855Z,12.20
2019-05-21T05:32:51.777Z,17.40
2019-05-21T05:35:21.599Z,20.47
2019-05-21T05:37:51.429Z,23.60
2019-05-21T05:40:21.867Z,15.67
2019-05-21T05:42:51.783Z,21.27
2019-05-21T05:45:22.682Z,21.23
2019-05-21T05:47:52.461Z,15.50
2019-05-21T05:50:25.232Z,14.57
2019-05-21T05:52:55.006Z,13.27
2019-05-21T05:55:24.873Z,15.30
2019-05-21T05:57:54.729Z,14.67
2019-05-21T06:00:24.983Z,19.30
2019-05-21T06:02:54.967Z,23.13
2019-05-21T06:05:25.944Z,25.63
2019-05-21T06:07:59.952Z,22.97
2019-05-21T06:10:27.345Z,16.07
2019-05-21T06:12:57.155Z,21.23
2019-05-21T06:15:26.943Z,21.37
2019-05-21T06:17:57.330Z,18.93
2019-05-21T06:20:28.726Z,21.23
2019-05-21T06:22:58.545Z,20.10
2019-05-21T06:25:29.116Z,20.97
2019-05-21T06:27:58.874Z,23.50
2019-05-21T06:30:28.823Z,25.97
2019-05-21T06:32:58.613Z,31.33
2019-05-21T06:35:28.529Z,23.63
2019-05-21T06:37:58.484Z,16.63
2019-05-21T06:40:28.342Z,17.13
2019-05-21T06:42:58.158Z,13.00
2019-05-21T06:45:29.359Z,15.90
2019-05-21T06:47:59.136Z,14.17
2019-05-21T06:50:29.143Z,16.47
2019-05-21T06:52:58.979Z,14.80
2019-05-21T06:55:28.781Z,12.57
2019-05-21T06:57:58.849Z,15.63
2019-05-21T07:00:28.754Z,18.03
2019-05-21T07:02:58.657Z,16.17
2019-05-21T07:05:28.514Z,14.33
2019-05-21T07:07:58.276Z,20.30
2019-05-21T07:10:28.195Z,14.83
2019-05-21T07:12:59.291Z,16.57
2019-05-21T07:15:28.926Z,13.97
2019-05-21T07:17:58.766Z,10.80
2019-05-21T07:20:28.618Z,16.60
2019-05-21T07:22:58.602Z,19.63
2019-05-21T07:25:28.177Z,14.70
2019-05-21T07:27:58.040Z,16.27
2019-05-21T07:30:27.837Z,12.13
2019-05-21T07:32:57.913Z,14.43
2019-05-21T07:35:28.221Z,12.20
2019-05-21T07:37:58.093Z,14.37
2019-05-21T07:40:28.003Z,13.63
2019-05-21T07:42:57.863Z,15.40
2019-05-21T07:45:27.732Z,19.20
2019-05-21T07:47:57.657Z,10.27
2019-05-21T07:50:27.514Z,19.27
2019-05-21T07:52:57.511Z,36.87
2019-05-21T07:55:27.311Z,14.20
2019-05-21T07:57:57.239Z,34.80
2019-05-21T08:00:27.223Z,22.90
2019-05-21T08:02:57.124Z,19.27
2019-05-21T08:05:26.983Z,16.33
2019-05-21T08:07:58.328Z,11.83
2019-05-21T08:10:28.240Z,19.17
2019-05-21T08:12:58.352Z,15.77
2019-05-21T08:15:28.657Z,17.13
2019-05-21T08:17:58.388Z,17.93
2019-05-21T08:20:28.514Z,14.13
2019-05-21T08:22:58.522Z,13.13
2019-05-21T08:25:29.476Z,16.93
2019-05-21T08:27:59.303Z,12.83
2019-05-21T08:30:29.197Z,13.50
2019-05-21T08:32:58.861Z,15.07
2019-05-21T08:35:28.740Z,16.70
2019-05-21T08:37:58.556Z,15.43
2019-05-21T08:40:28.602Z,11.27
2019-05-21T08:42:58.384Z,13.57
2019-05-21T08:45:28.555Z,12.53
2019-05-21T08:47:58.416Z,17.40
2019-05-21T08:50:28.294Z,14.83
2019-05-21T08:52:58.062Z,11.33
2019-05-21T08:55:28.020Z,11.47
2019-05-21T08:58:06.985Z,9.03
2019-05-21T09:00:29.745Z,18.47
2019-05-21T09:02:59.725Z,10.13
2019-05-21T09:05:29.489Z,14.50
2019-05-21T09:07:59.406Z,17.47
2019-05-21T09:10:29.379Z,10.90
2019-05-21T09:12:59.225Z,13.27
2019-05-21T09:15:28.964Z,15.37
2019-05-21T09:17:58.828Z,18.67
2019-05-21T09:20:28.565Z,11.37
2019-05-21T09:22:58.554Z,11.53
2019-05-21T09:25:28.945Z,15.87
2019-05-21T09:27:58.921Z,12.60
2019-05-21T09:30:28.738Z,15.13
2019-05-21T09:32:58.603Z,16.43
2019-05-21T09:35:28.367Z,12.30
2019-05-21T09:37:58.284Z,12.77
2019-05-21T09:40:29.532Z,12.77
2019-05-21T09:43:00.416Z,12.37
2019-05-21T09:45:30.114Z,14.87
2019-05-21T09:47:59.974Z,14.53
2019-05-21T09:50:29.664Z,15.83
2019-05-21T09:52:59.553Z,12.43
2019-05-21T09:55:29.360Z,11.37
2019-05-21T09:58:20.910Z,10.47
2019-05-21T10:01:15.816Z,12.53
2019-05-21T10:03:49.739Z,10.83
2019-05-21T10:06:19.846Z,12.83
2019-05-21T10:08:49.635Z,17.77
2019-05-21T10:11:19.250Z,8.00
2019-05-21T10:13:49.083Z,11.57
2019-05-21T10:16:19.106Z,13.27
2019-05-21T10:18:49.070Z,13.50
2019-05-21T10:21:18.948Z,11.97
2019-05-21T10:23:48.755Z,10.23
2019-05-21T10:26:18.575Z,9.47
2019-05-21T10:28:48.546Z,9.83
2019-05-21T10:31:18.300Z,12.70
2019-05-21T10:33:48.292Z,11.03
2019-05-21T10:36:18.168Z,11.60
2019-05-21T10:38:48.057Z,10.13
2019-05-21T10:41:18.072Z,11.40
2019-05-21T10:43:48.049Z,12.70
2019-05-21T10:46:18.006Z,16.43
2019-05-21T10:48:47.731Z,11.43
2019-05-21T10:51:18.572Z,14.67
2019-05-21T10:53:48.378Z,15.43
2019-05-21T10:56:18.230Z,12.40
2019-05-21T10:58:48.015Z,9.30
2019-05-21T11:01:25.876Z,10.73
2019-05-21T11:04:16.619Z,7.23
2019-05-21T11:06:47.110Z,17.23
2019-05-21T11:09:20.499Z,12.17
2019-05-21T11:11:50.358Z,12.80
2019-05-21T11:14:21.415Z,9.83
2019-05-21T11:16:51.222Z,16.67
2019-05-21T11:19:21.139Z,15.30
2019-05-21T11:21:51.079Z,13.03
2019-05-21T11:24:20.951Z,12.37
2019-05-21T11:26:50.964Z,14.27
2019-05-21T11:29:20.903Z,12.17
2019-05-21T11:31:57.253Z,9.97
2019-05-21T11:34:22.223Z,14.17
2019-05-21T11:36:52.172Z,15.90
2019-05-21T11:39:21.976Z,10.87
2019-05-21T11:41:51.946Z,14.00
2019-05-21T11:44:21.841Z,12.93
2019-05-21T11:46:51.754Z,12.83
2019-05-21T11:49:21.503Z,15.67
2019-05-21T11:51:51.400Z,20.70
2019-05-21T11:54:21.213Z,11.43
2019-05-21T11:56:51.413Z,14.80
2019-05-21T11:59:21.261Z,16.77
2019-05-21T12:01:51.026Z,14.13
2019-05-21T12:04:20.861Z,11.17
2019-05-21T12:06:50.831Z,19.13
2019-05-21T12:09:20.686Z,14.67
2019-05-21T12:11:50.600Z,17.23
2019-05-21T12:14:20.674Z,16.20
2019-05-21T12:16:50.547Z,17.77
2019-05-21T12:19:20.348Z,16.60
2019-05-21T12:21:50.223Z,14.83
2019-05-21T12:24:20.029Z,18.97
2019-05-21T12:26:49.971Z,15.33
2019-05-21T12:29:19.904Z,12.20
2019-05-21T12:31:49.635Z,13.43
2019-05-21T12:34:19.419Z,20.93
2019-05-21T12:36:49.288Z,14.53
2019-05-21T12:39:19.242Z,12.87
2019-05-21T12:41:49.108Z,11.10
2019-05-21T12:44:19.144Z,14.80
2019-05-21T12:46:49.194Z,12.33
2019-05-21T12:49:19.077Z,7.85
2019-05-21T12:51:48.893Z,9.35
2019-05-21T12:54:20.055Z,12.33
2019-05-21T12:56:49.927Z,10.78
2019-05-21T12:59:19.736Z,11.50
2019-05-21T13:01:50.831Z,13.98
2019-05-21T13:04:20.723Z,12.55
2019-05-21T13:06:50.655Z,16.15
2019-05-21T13:09:32.314Z,16.40
2019-05-21T13:11:53.359Z,13.05
2019-05-21T13:14:23.152Z,13.55
2019-05-21T13:16:53.019Z,12.03
2019-05-21T13:19:22.898Z,11.60
2019-05-21T13:21:52.710Z,16.00
2019-05-21T13:24:22.743Z,18.70
2019-05-21T13:26:52.667Z,15.23
2019-05-21T13:29:22.459Z,17.67
2019-05-21T13:31:52.349Z,15.85
2019-05-21T13:34:22.151Z,9.65
2019-05-21T13:36:52.016Z,11.00
2019-05-21T13:39:25.481Z,15.43
2019-05-21T13:41:53.631Z,15.23
2019-05-21T13:44:23.284Z,9.93
2019-05-21T13:46:53.108Z,16.20
2019-05-21T13:49:22.971Z,13.25
2019-05-21T13:51:52.835Z,9.35
2019-05-21T13:54:22.657Z,7.83
2019-05-21T13:56:52.610Z,13.18
2019-05-21T13:59:22.389Z,7.45
2019-05-21T14:01:52.616Z,12.23
2019-05-21T14:04:25.053Z,11.35
2019-05-21T14:06:55.171Z,11.18
2019-05-21T14:09:25.141Z,10.45
2019-05-21T14:11:55.068Z,8.68
2019-05-21T14:14:24.879Z,11.38
2019-05-21T14:16:54.836Z,8.23
2019-05-21T14:19:24.742Z,8.85
2019-05-21T14:21:54.631Z,11.35
2019-05-21T14:24:24.473Z,12.58
2019-05-21T14:26:54.446Z,10.48
2019-05-21T14:29:24.155Z,9.40
2019-05-21T14:31:54.162Z,13.45
2019-05-21T14:34:24.083Z,9.53
2019-05-21T14:36:54.709Z,11.73
2019-05-21T14:39:24.642Z,12.20
2019-05-21T14:41:54.460Z,14.20
2019-05-21T14:44:25.616Z,10.98
2019-05-21T14:46:55.396Z,12.00
2019-05-21T14:49:25.321Z,14.60
2019-05-21T14:51:55.176Z,9.10
2019-05-21T14:54:26.950Z,15.55
2019-05-21T14:56:57.786Z,9.28
2019-05-21T14:59:28.945Z,8.25
2019-05-21T15:01:59.046Z,10.45
2019-05-21T15:04:29.116Z,11.38
2019-05-21T15:06:59.004Z,11.85
2019-05-21T15:09:28.874Z,12.20
2019-05-21T15:11:58.790Z,9.53
2019-05-21T15:14:28.844Z,9.27
2019-05-21T15:16:58.841Z,13.93
2019-05-21T15:19:33.116Z,7.57
2019-05-21T15:22:03.369Z,11.57
2019-05-21T15:24:33.660Z,11.57
2019-05-21T15:27:03.765Z,7.97
2019-05-21T15:29:33.519Z,13.20
2019-05-21T15:32:03.438Z,11.50
2019-05-21T15:34:33.290Z,11.22
2019-05-21T15:37:03.492Z,12.47
2019-05-21T15:39:33.387Z,9.33
2019-05-21T15:42:03.370Z,16.27
2019-05-21T15:44:33.236Z,7.67
2019-05-21T15:47:03.267Z,12.07
2019-05-21T15:49:36.949Z,10.50
2019-05-21T15:52:05.931Z,8.50
2019-05-21T15:54:35.656Z,8.03
2019-05-21T15:57:05.629Z,6.97
2019-05-21T15:59:35.501Z,8.90
2019-05-21T16:02:05.503Z,7.77
2019-05-21T16:04:35.301Z,9.23
2019-05-21T16:07:05.571Z,11.17
2019-05-21T16:09:35.383Z,15.30
2019-05-21T16:12:05.217Z,8.17
2019-05-21T16:14:35.096Z,8.03
2019-05-21T16:17:06.134Z,9.63
2019-05-21T16:19:35.780Z,13.97
2019-05-21T16:22:07.016Z,9.07
2019-05-21T16:24:36.812Z,14.13
2019-05-21T16:27:06.626Z,12.57
2019-05-21T16:29:36.372Z,12.03
2019-05-21T16:32:06.279Z,11.10
2019-05-21T16:34:36.082Z,12.07
2019-05-21T16:37:06.356Z,13.37
2019-05-21T16:39:36.103Z,11.97
2019-05-21T16:42:05.829Z,12.20
2019-05-21T16:44:35.904Z,12.03
2019-05-21T16:47:05.752Z,9.87
2019-05-21T16:49:35.578Z,8.70
2019-05-21T16:52:06.359Z,15.00
2019-05-21T16:54:37.500Z,11.67
2019-05-21T16:57:07.495Z,9.07
2019-05-21T16:59:37.404Z,9.90
2019-05-21T17:02:08.141Z,13.97
2019-05-21T17:04:37.956Z,12.87
2019-05-21T17:07:07.814Z,13.13
2019-05-21T17:09:37.996Z,8.93
2019-05-21T17:12:07.991Z,8.13
2019-05-21T17:14:37.693Z,7.03
2019-05-21T17:17:07.761Z,8.53
2019-05-21T17:19:37.568Z,4.60
2019-05-21T17:22:07.539Z,10.77
2019-05-21T17:24:37.317Z,6.33
2019-05-21T17:27:07.332Z,5.50
2019-05-21T17:29:37.284Z,3.90
2019-05-21T17:32:07.195Z,5.87
2019-05-21T17:34:36.968Z,5.23
2019-05-21T17:37:06.950Z,3.47
2019-05-21T17:39:36.804Z,2.50
2019-05-21T17:42:15.206Z,5.37
2019-05-21T17:44:38.410Z,2.00
2019-05-21T17:47:08.213Z,2.33
2019-05-21T17:49:38.162Z,2.93
2019-05-21T17:52:08.023Z,3.77
2019-05-21T17:54:38.051Z,3.13
2019-05-21T17:57:08.032Z,3.27
2019-05-21T17:59:38.003Z,4.03
2019-05-21T18:02:10.011Z,3.30
2019-05-21T18:04:41.409Z,4.53
2019-05-21T18:07:12.198Z,4.43
2019-05-21T18:09:42.543Z,3.27
2019-05-21T18:12:14.355Z,4.97
2019-05-21T18:14:44.660Z,2.20
2019-05-21T18:17:16.927Z,3.40
2019-05-21T18:19:46.988Z,3.10
2019-05-21T18:22:18.372Z,5.13
2019-05-21T18:24:48.984Z,3.53
2019-05-21T18:27:20.984Z,2.10
2019-05-21T18:29:50.907Z,3.37
2019-05-21T18:32:20.701Z,3.77
2019-05-21T18:34:50.499Z,3.07
2019-05-21T18:37:20.327Z,2.87
2019-05-21T18:39:50.282Z,4.90
2019-05-21T18:42:22.536Z,7.43
2019-05-21T18:44:51.493Z,4.47
2019-05-21T18:47:21.269Z,4.80
2019-05-21T18:49:51.200Z,5.97
2019-05-21T18:52:21.279Z,12.03
2019-05-21T18:54:51.032Z,2.90
2019-05-21T18:57:20.932Z,2.50
2019-05-21T18:59:50.773Z,2.40
2019-05-21T19:02:20.657Z,2.60
2019-05-21T19:04:50.776Z,2.97
2019-05-21T19:07:20.950Z,3.67
2019-05-21T19:09:51.202Z,3.43
2019-05-21T19:12:35.367Z,4.90
2019-05-21T19:14:52.731Z,7.70
2019-05-21T19:17:34.666Z,6.20
2019-05-21T19:19:54.171Z,7.10
2019-05-21T19:22:27.544Z,4.70
2019-05-21T19:24:59.844Z,6.50
2019-05-21T19:27:31.252Z,6.60
2019-05-21T19:30:01.191Z,6.47
2019-05-21T19:32:31.326Z,6.90
2019-05-21T19:35:01.657Z,6.70
2019-05-21T19:37:31.694Z,8.23
2019-05-21T19:40:01.592Z,4.90
2019-05-21T19:42:31.594Z,9.97
2019-05-21T19:45:01.703Z,9.53
2019-05-21T19:47:33.150Z,10.13
2019-05-21T19:50:03.153Z,5.97
2019-05-21T19:52:33.200Z,5.93
2019-05-21T19:55:04.372Z,3.70
2019-05-21T19:57:35.662Z,2.90
2019-05-21T20:00:06.290Z,4.07
2019-05-21T20:02:37.363Z,3.27
2019-05-21T20:05:07.861Z,3.03
2019-05-21T20:07:37.848Z,3.53
2019-05-21T20:10:09.130Z,2.63
2019-05-21T20:12:40.444Z,3.97
2019-05-21T20:15:10.568Z,3.33
2019-05-21T20:17:41.121Z,3.57
2019-05-21T20:20:13.062Z,4.87
2019-05-21T20:22:43.730Z,3.50
2019-05-21T20:25:14.175Z,3.67
2019-05-21T20:27:44.573Z,5.20
2019-05-21T20:30:19.043Z,4.40
2019-05-21T20:32:50.276Z,4.80
2019-05-21T20:35:22.498Z,24.27
2019-05-21T20:37:52.627Z,10.13
2019-05-21T20:40:23.460Z,5.40
2019-05-21T20:42:54.611Z,5.20
2019-05-21T20:45:25.390Z,4.37
2019-05-21T20:47:56.861Z,5.10
2019-05-21T20:50:27.127Z,4.93
2019-05-21T20:52:57.014Z,3.67
2019-05-21T20:55:27.762Z,3.77
2019-05-21T20:57:57.637Z,5.20
2019-05-21T21:00:49.007Z,5.07
2019-05-21T21:03:18.950Z,7.50
2019-05-21T21:05:48.866Z,4.60
2019-05-21T21:08:19.669Z,4.27
2019-05-21T21:10:49.642Z,9.90
2019-05-21T21:13:19.569Z,6.70
2019-05-21T21:15:49.755Z,8.63
2019-05-21T21:18:19.766Z,4.77
2019-05-21T21:20:49.793Z,7.47
2019-05-21T21:23:21.631Z,6.97
2019-05-21T21:25:52.053Z,4.43
2019-05-21T21:28:22.458Z,6.63
2019-05-21T21:30:52.473Z,5.63
2019-05-21T21:33:22.270Z,7.93
2019-05-21T21:35:52.235Z,10.10
2019-05-21T21:38:27.482Z,6.33
2019-05-21T21:40:57.336Z,4.37
2019-05-21T21:43:27.254Z,6.63
2019-05-21T21:45:57.422Z,5.00
2019-05-21T21:48:29.310Z,5.13
2019-05-21T21:50:59.118Z,5.33
2019-05-21T21:53:29.021Z,4.43
2019-05-21T21:55:58.939Z,5.10
2019-05-21T21:58:28.758Z,6.13
2019-05-21T22:01:25.859Z,6.37
2019-05-21T22:03:59.542Z,7.13
2019-05-21T22:06:32.833Z,7.40
2019-05-21T22:09:04.498Z,8.00
2019-05-21T22:11:34.970Z,6.33
2019-05-21T22:14:05.772Z,6.63
2019-05-21T22:16:35.786Z,5.50
2019-05-21T22:19:06.715Z,6.30
2019-05-21T22:21:38.116Z,5.80
2019-05-21T22:24:08.716Z,4.90
2019-05-21T22:26:38.931Z,4.60
2019-05-21T22:29:10.501Z,6.77
2019-05-21T22:31:40.820Z,5.37
2019-05-21T22:34:10.653Z,5.17
2019-05-21T22:36:40.833Z,3.60
2019-05-21T22:39:17.736Z,5.10
2019-05-21T22:41:47.652Z,4.10
2019-05-21T22:44:17.384Z,4.23
2019-05-21T22:46:48.122Z,3.83
2019-05-21T22:49:18.116Z,4.43
2019-05-21T22:51:48.363Z,4.50
2019-05-21T22:54:18.282Z,8.03
2019-05-21T22:56:48.044Z,4.10
2019-05-21T22:59:18.009Z,4.10
2019-05-21T23:01:49.912Z,4.03
2019-05-21T23:04:19.912Z,4.87
2019-05-21T23:06:49.957Z,4.07
2019-05-21T23:09:19.831Z,6.40
2019-05-21T23:11:50.875Z,6.10
2019-05-21T23:14:20.874Z,4.33
2019-05-21T23:16:50.845Z,5.27
2019-05-21T23:19:24.314Z,4.93
2019-05-21T23:21:56.577Z,6.63
2019-05-21T23:24:28.852Z,4.30
2019-05-21T23:26:59.535Z,5.40
2019-05-21T23:29:29.222Z,6.07
2019-05-21T23:31:59.307Z,3.90
2019-05-21T23:34:29.194Z,4.43
2019-05-21T23:36:59.448Z,3.97
2019-05-21T23:39:31.346Z,3.93
2019-05-21T23:42:02.833Z,3.60
2019-05-21T23:44:32.668Z,6.10
2019-05-21T23:47:05.008Z,4.30
2019-05-21T23:49:34.798Z,6.73
2019-05-21T23:52:04.771Z,4.43
2019-05-21T23:54:36.059Z,5.10
2019-05-21T23:57:07.784Z,5.10
2019-05-21T23:59:38.251Z,4.47
